createdAt,value
2019-04-11T00:02:18.571Z,100295.39
2019-04-11T00:04:48.610Z,100298.11
2019-04-11T00:07:18.635Z,100300.05
2019-04-11T00:09:49.293Z,100295.89
2019-04-11T00:12:19.638Z,100301.17
2019-04-11T00:14:49.681Z,100306.01
2019-04-11T00:17:19.817Z,100305.07
2019-04-11T00:19:49.851Z,100314.85
2019-04-11T00:22:21.482Z,100326.28
2019-04-11T00:24:51.567Z,100326.00
2019-04-11T00:27:21.718Z,100323.21
2019-04-11T00:29:51.631Z,100324.98
2019-04-11T00:32:21.874Z,100321.23
2019-04-11T00:34:53.314Z,100324.90
2019-04-11T00:37:23.484Z,100329.56
2019-04-11T00:39:54.134Z,100325.49
2019-04-11T00:42:23.379Z,100324.47
2019-04-11T00:44:53.283Z,100328.15
2019-04-11T00:47:23.331Z,100324.90
2019-04-11T00:49:53.358Z,100319.36
2019-04-11T00:52:25.375Z,100320.91
2019-04-11T00:54:55.565Z,100320.16
2019-04-11T00:57:25.727Z,100319.69
2019-04-11T00:59:56.505Z,100315.45
2019-04-11T01:02:26.717Z,100317.01
2019-04-11T01:04:57.106Z,100313.27
2019-04-11T01:07:29.105Z,100321.80
2019-04-11T01:09:59.184Z,100326.29
2019-04-11T01:12:29.222Z,100322.49
2019-04-11T01:14:59.445Z,100324.17
2019-04-11T01:17:29.607Z,100316.58
2019-04-11T01:19:59.735Z,100315.16
2019-04-11T01:22:29.908Z,100309.66
2019-04-11T01:24:59.942Z,100312.72
2019-04-11T01:27:30.665Z,100308.39
2019-04-11T01:30:00.606Z,100311.95
2019-04-11T01:32:30.646Z,100308.31
2019-04-11T01:35:01.297Z,100311.10
2019-04-11T01:37:31.454Z,100304.99
2019-04-11T01:40:02.428Z,100306.59
2019-04-11T01:42:33.471Z,100300.30
2019-04-11T01:45:03.886Z,100299.86
2019-04-11T01:47:37.386Z,100283.58
2019-04-11T01:50:08.428Z,100276.16
2019-04-11T01:52:38.613Z,100280.45
2019-04-11T01:55:08.648Z,100276.48
2019-04-11T01:57:38.687Z,100291.41
2019-04-11T02:00:12.223Z,100296.51
2019-04-11T02:02:44.406Z,100301.14
2019-04-11T02:05:16.727Z,100300.41
2019-04-11T02:07:46.982Z,100313.99
2019-04-11T02:10:17.039Z,100318.71
2019-04-11T02:12:47.688Z,100329.16
2019-04-11T02:15:17.735Z,100331.37
2019-04-11T02:17:48.779Z,100329.72
2019-04-11T02:20:18.935Z,100335.16
2019-04-11T02:22:50.815Z,100340.61
2019-04-11T02:25:28.731Z,100351.02
2019-04-11T02:28:00.610Z,100350.44
2019-04-11T02:30:31.352Z,100354.41
2019-04-11T02:33:01.474Z,100345.95
2019-04-11T02:35:31.727Z,100345.42
2019-04-11T02:38:02.961Z,100345.89
2019-04-11T02:40:33.247Z,100352.13
2019-04-11T02:43:05.010Z,100349.83
2019-04-11T02:45:45.396Z,100356.95
2019-04-11T02:48:09.331Z,100349.83
2019-04-11T02:50:40.655Z,100345.16
2019-04-11T02:53:12.426Z,100345.45
2019-04-11T02:55:43.806Z,100350.61
2019-04-11T02:58:15.326Z,100356.27
2019-04-11T03:00:45.656Z,100360.00
2019-04-11T03:03:15.402Z,100353.71
2019-04-11T03:05:47.056Z,100361.94
2019-04-11T03:08:19.795Z,100358.38
2019-04-11T03:10:49.335Z,100361.73
2019-04-11T03:13:21.105Z,100360.17
2019-04-11T03:16:07.499Z,100359.10
2019-04-11T03:18:40.711Z,100367.83
2019-04-11T03:21:00.154Z,100367.33
2019-04-11T03:23:27.849Z,100377.13
2019-04-11T03:25:58.321Z,100381.73
2019-04-11T03:28:31.386Z,100386.11
2019-04-11T03:31:32.663Z,100384.86
2019-04-11T03:37:00.689Z,100395.55
2019-04-11T03:38:55.477Z,100395.84
2019-04-11T03:41:23.514Z,100397.81
2019-04-11T03:43:51.086Z,100386.72
2019-04-11T03:46:30.851Z,100383.19
2019-04-11T03:48:57.755Z,100386.54
2019-04-11T03:51:17.973Z,100386.28
2019-04-11T03:53:47.272Z,100386.05
2019-04-11T03:56:19.926Z,100386.66
2019-04-11T03:58:50.323Z,100379.38
2019-04-11T04:01:22.640Z,100386.66
2019-04-11T04:03:53.979Z,100379.21
2019-04-11T04:06:25.525Z,100374.95
2019-04-11T04:08:55.911Z,100370.66
2019-04-11T04:11:27.510Z,100372.71
2019-04-11T04:14:17.150Z,100369.31
2019-04-11T04:16:54.860Z,100373.45
2019-04-11T04:19:35.360Z,100368.45
2019-04-11T04:22:14.187Z,100361.48
2019-04-11T04:24:47.495Z,100360.98
2019-04-11T04:27:19.848Z,100357.06
2019-04-11T04:29:54.903Z,100361.09
2019-04-11T04:32:23.038Z,100366.98
2019-04-11T04:34:53.350Z,100368.19
2019-04-11T04:37:24.840Z,100371.08
2019-04-11T04:40:13.531Z,100375.02
2019-04-11T04:42:35.911Z,100371.77
2019-04-11T04:45:02.513Z,100374.38
2019-04-11T04:47:42.668Z,100371.36
2019-04-11T04:50:08.595Z,100381.80
2019-04-11T04:52:38.924Z,100390.09
2019-04-11T04:55:10.579Z,100392.48
2019-04-11T04:57:42.888Z,100396.11
2019-04-11T05:00:14.918Z,100380.20
2019-04-11T05:02:47.903Z,100379.37
2019-04-11T05:05:19.619Z,100382.63
2019-04-11T05:07:49.937Z,100389.70
2019-04-11T05:10:20.104Z,100401.84
2019-04-11T05:12:51.428Z,100411.06
2019-04-11T05:15:21.534Z,100405.28
2019-04-11T05:17:51.473Z,100404.15
2019-04-11T05:20:21.885Z,100407.34
2019-04-11T05:22:51.359Z,100409.25
2019-04-11T05:25:22.255Z,100409.52
2019-04-11T05:27:52.438Z,100412.48
2019-04-11T05:30:23.123Z,100411.91
2019-04-11T05:32:53.496Z,100424.78
2019-04-11T05:35:23.457Z,100428.92
2019-04-11T05:37:53.614Z,100433.72
2019-04-11T05:40:24.016Z,100431.51
2019-04-11T05:42:54.636Z,100432.50
2019-04-11T05:45:26.466Z,100432.21
2019-04-11T05:47:58.456Z,100437.82
2019-04-11T05:50:32.046Z,100432.80
2019-04-11T05:53:03.702Z,100429.26
2019-04-11T05:55:36.361Z,100432.08
2019-04-11T05:58:11.405Z,100424.72
2019-04-11T06:00:46.744Z,100428.45
2019-04-11T06:03:17.684Z,100433.13
2019-04-11T06:05:49.915Z,100432.38
2019-04-11T06:08:26.819Z,100431.61
2019-04-11T06:11:14.574Z,100427.85
2019-04-11T06:13:56.811Z,100437.14
2019-04-11T06:16:38.911Z,100437.44
2019-04-11T06:19:04.056Z,100440.23
2019-04-11T06:21:36.003Z,100442.28
2019-04-11T06:24:14.173Z,100438.59
2019-04-11T06:26:46.966Z,100445.30
2019-04-11T06:29:26.088Z,100443.32
2019-04-11T06:32:11.768Z,100445.83
2019-04-11T06:34:43.827Z,100448.03
2019-04-11T06:37:19.295Z,100457.27
2019-04-11T06:39:58.282Z,100456.33
2019-04-11T06:42:30.267Z,100463.84
2019-04-11T06:45:18.282Z,100463.75
2019-04-11T06:48:02.068Z,100459.25
2019-04-11T06:50:37.527Z,100458.95
2019-04-11T06:53:08.877Z,100454.50
2019-04-11T06:55:57.228Z,100449.97
2019-04-11T06:58:29.758Z,100457.72
2019-04-11T07:01:01.438Z,100462.31
2019-04-11T07:03:34.095Z,100456.53
2019-04-11T07:06:05.563Z,100452.19
2019-04-11T07:08:40.603Z,100452.46
2019-04-11T07:11:12.229Z,100458.72
2019-04-11T07:13:43.792Z,100455.19
2019-04-11T07:16:15.254Z,100455.18
2019-04-11T07:18:47.015Z,100462.27
2019-04-11T07:21:17.128Z,100461.70
2019-04-11T07:24:05.428Z,100452.97
2019-04-11T07:26:37.377Z,100456.83
2019-04-11T07:29:24.149Z,100459.24
2019-04-11T07:31:57.024Z,100450.25
2019-04-11T07:34:45.747Z,100462.58
2019-04-11T07:37:32.677Z,100456.80
2019-04-11T07:40:13.454Z,100457.64
2019-04-11T07:42:44.229Z,100457.89
2019-04-11T07:45:21.619Z,100462.88
2019-04-11T07:47:53.174Z,100455.47
2019-04-11T07:50:24.914Z,100465.93
2019-04-11T07:53:06.747Z,100464.00
2019-04-11T07:55:38.672Z,100463.47
2019-04-11T07:58:21.938Z,100462.33
2019-04-11T08:01:10.375Z,100464.26
2019-04-11T08:03:54.250Z,100468.34
2019-04-11T08:06:42.898Z,100458.48
2019-04-11T08:09:15.314Z,100458.17
2019-04-11T08:11:50.031Z,100459.92
2019-04-11T08:14:21.531Z,100455.45
2019-04-11T08:17:03.670Z,100456.13
2019-04-11T08:19:44.373Z,100455.54
2019-04-11T08:22:16.926Z,100448.65
2019-04-11T08:25:00.902Z,100450.91
2019-04-11T08:27:33.514Z,100438.13
2019-04-11T08:30:06.392Z,100445.73
2019-04-11T08:32:56.616Z,100446.23
2019-04-11T08:35:34.920Z,100435.02
2019-04-11T08:38:12.419Z,100437.70
2019-04-11T08:40:53.359Z,100435.77
2019-04-11T08:43:28.915Z,100444.48
2019-04-11T08:46:00.841Z,100443.03
2019-04-11T08:48:33.035Z,100444.50
2019-04-11T08:51:09.791Z,100443.73
2019-04-11T08:53:44.862Z,100438.34
2019-04-11T08:56:16.768Z,100441.19
2019-04-11T08:59:33.636Z,100432.81
2019-04-11T09:02:04.670Z,100439.25
2019-04-11T09:05:03.258Z,100426.00
2019-04-11T09:07:25.418Z,100421.39
2019-04-11T09:10:07.425Z,100422.02
2019-04-11T09:12:39.400Z,100416.84
2019-04-11T09:15:26.662Z,100425.88
2019-04-11T09:18:04.204Z,100420.11
2019-04-11T09:20:34.071Z,100420.34
2019-04-11T09:23:04.089Z,100412.30
2019-04-11T09:25:45.524Z,100415.77
2019-04-11T09:28:18.181Z,100410.35
2019-04-11T09:30:56.981Z,100406.67
2019-04-11T09:33:47.007Z,100398.79
2019-04-11T09:36:33.901Z,100408.66
2019-04-11T09:39:12.931Z,100394.20
2019-04-11T09:42:00.976Z,100403.72
2019-04-11T09:44:32.919Z,100397.75
2019-04-11T09:47:13.718Z,100392.48
2019-04-11T09:49:48.451Z,100393.97
2019-04-11T09:52:26.985Z,100397.86
2019-04-11T09:55:01.337Z,100387.66
2019-04-11T09:57:34.656Z,100394.48
2019-04-11T10:00:08.468Z,100387.77
2019-04-11T10:02:58.862Z,100367.32
2019-04-11T10:05:34.103Z,100367.32
2019-04-11T10:08:12.765Z,100381.83
2019-04-11T10:10:47.386Z,100377.36
2019-04-11T10:13:28.919Z,100389.47
2019-04-11T10:16:17.975Z,100384.20
2019-04-11T10:18:53.600Z,100380.69
2019-04-11T10:21:25.951Z,100370.35
2019-04-11T10:24:16.631Z,100374.79
2019-04-11T10:27:06.750Z,100374.79
2019-04-11T10:29:41.811Z,100376.83
2019-04-11T10:32:13.589Z,100379.02
2019-04-11T10:34:52.210Z,100371.02
2019-04-11T10:37:23.475Z,100365.42
2019-04-11T10:39:54.512Z,100374.87
2019-04-11T10:42:26.315Z,100360.42
2019-04-11T10:45:14.383Z,100359.95
2019-04-11T10:47:47.047Z,100356.70
2019-04-11T10:50:21.990Z,100361.52
2019-04-11T10:53:00.521Z,100358.66
2019-04-11T10:55:32.294Z,100361.35
2019-04-11T10:58:06.833Z,100357.00
2019-04-11T11:00:41.476Z,100354.34
2019-04-11T11:03:15.886Z,100356.38
2019-04-11T11:05:47.471Z,100352.91
2019-04-11T11:08:29.118Z,100349.92
2019-04-11T11:11:00.743Z,100349.41
2019-04-11T11:13:48.483Z,100349.41
2019-04-11T11:16:20.270Z,100354.92
2019-04-11T11:19:31.201Z,100343.38
2019-04-11T11:21:39.914Z,100346.81
2019-04-11T11:24:28.292Z,100339.44
2019-04-11T11:27:02.546Z,100346.30
2019-04-11T11:29:32.004Z,100341.07
2019-04-11T11:32:05.022Z,100340.24
2019-04-11T11:34:40.988Z,100338.87
2019-04-11T11:37:29.021Z,100331.91
2019-04-11T11:40:14.572Z,100330.41
2019-04-11T11:42:47.451Z,100334.61
2019-04-11T11:45:19.551Z,100321.18
2019-04-11T11:47:55.307Z,100325.02
2019-04-11T11:50:26.743Z,100330.98
2019-04-11T11:53:04.816Z,100317.63
2019-04-11T11:55:41.265Z,100331.16
2019-04-11T11:58:29.939Z,100335.92
2019-04-11T12:01:05.826Z,100324.84
2019-04-11T12:03:46.782Z,100325.92
2019-04-11T12:06:22.284Z,100330.02
2019-04-11T12:08:51.571Z,100321.36
2019-04-11T12:11:22.700Z,100323.37
2019-04-11T12:14:00.399Z,100316.44
2019-04-11T12:16:33.053Z,100320.88
2019-04-11T12:19:22.167Z,100318.19
2019-04-11T12:21:55.782Z,100316.77
2019-04-11T12:24:29.161Z,100321.80
2019-04-11T12:27:18.638Z,100317.90
2019-04-11T12:30:08.682Z,100305.94
2019-04-11T12:32:46.639Z,100325.60
2019-04-11T12:35:36.038Z,100328.91
2019-04-11T12:38:24.700Z,100321.73
2019-04-11T12:41:14.993Z,100305.34
2019-04-11T12:44:04.840Z,100308.90
2019-04-11T12:46:52.786Z,100310.25
2019-04-11T12:49:27.112Z,100311.93
2019-04-11T12:52:15.117Z,100306.44
2019-04-11T12:54:46.719Z,100302.55
2019-04-11T12:57:34.867Z,100307.16
2019-04-11T13:00:20.748Z,100316.82
2019-04-11T13:03:01.319Z,100321.59
2019-04-11T13:05:33.599Z,100325.18
2019-04-11T13:08:21.753Z,100312.30
2019-04-11T13:10:51.793Z,100303.22
2019-04-11T13:13:29.498Z,100302.64
2019-04-11T13:16:12.471Z,100302.64
2019-04-11T13:18:46.546Z,100308.64
2019-04-11T13:21:27.217Z,100306.72
2019-04-11T13:23:58.789Z,100307.29
2019-04-11T13:26:36.589Z,100306.51
2019-04-11T13:29:29.251Z,100309.34
2019-04-11T13:32:07.156Z,100305.59
2019-04-11T13:34:38.832Z,100310.39
2019-04-11T13:37:16.443Z,100314.55
2019-04-11T13:39:48.002Z,100315.80
2019-04-11T13:42:22.636Z,100317.28
2019-04-11T13:44:52.674Z,100305.16
2019-04-11T13:47:40.711Z,100302.23
2019-04-11T13:50:16.759Z,100306.31
2019-04-11T13:53:00.424Z,100292.31
2019-04-11T13:55:30.770Z,100291.63
2019-04-11T13:58:02.339Z,100287.08
2019-04-11T14:00:39.741Z,100290.36
2019-04-11T14:03:26.639Z,100294.43
2019-04-11T14:05:58.255Z,100287.58
2019-04-11T14:08:41.871Z,100286.28
2019-04-11T14:11:19.677Z,100290.86
2019-04-11T14:13:49.455Z,100286.08
2019-04-11T14:16:23.641Z,100283.30
2019-04-11T14:19:12.416Z,100283.72
2019-04-11T14:21:44.265Z,100284.37
2019-04-11T14:24:24.845Z,100280.13
2019-04-11T14:27:02.539Z,100280.95
2019-04-11T14:29:34.126Z,100267.77
2019-04-11T14:32:14.652Z,100264.77
2019-04-11T14:35:04.769Z,100270.93
2019-04-11T14:37:38.417Z,100263.95
2019-04-11T14:40:26.004Z,100261.27
2019-04-11T14:43:16.157Z,100257.29
2019-04-11T14:45:53.090Z,100257.66
2019-04-11T14:48:42.655Z,100257.66
2019-04-11T14:51:26.200Z,100262.61
2019-04-11T14:54:11.794Z,100259.09
2019-04-11T14:56:47.978Z,100252.17
2019-04-11T14:59:35.907Z,100254.66
2019-04-11T15:02:07.574Z,100253.95
2019-04-11T15:04:39.121Z,100262.87
2019-04-11T15:07:10.037Z,100257.16
2019-04-11T15:09:46.484Z,100255.17
2019-04-11T15:12:20.593Z,100255.72
2019-04-11T15:14:52.164Z,100248.66
2019-04-11T15:17:33.047Z,100252.06
2019-04-11T15:20:07.490Z,100247.50
2019-04-11T15:22:45.087Z,100250.78
2019-04-11T15:25:19.521Z,100246.28
2019-04-11T15:28:03.173Z,100251.30
2019-04-11T15:30:53.043Z,100256.83
2019-04-11T15:33:40.873Z,100253.43
2019-04-11T15:36:12.449Z,100258.23
2019-04-11T15:39:00.185Z,100258.09
2019-04-11T15:41:31.846Z,100254.34
2019-04-11T15:44:21.618Z,100259.70
2019-04-11T15:46:51.550Z,100255.77
2019-04-11T15:49:30.213Z,100260.09
2019-04-11T15:51:56.440Z,100259.72
2019-04-11T15:54:44.487Z,100267.28
2019-04-11T15:57:16.148Z,100258.08
2019-04-11T15:59:47.713Z,100258.20
2019-04-11T16:02:37.797Z,100265.73
2019-04-11T16:05:31.465Z,100269.20
2019-04-11T16:08:19.419Z,100271.81
2019-04-11T16:10:54.174Z,100267.76
2019-04-11T16:13:25.843Z,100267.30
2019-04-11T16:16:05.220Z,100270.38
2019-04-11T16:18:47.128Z,100277.03
2019-04-11T16:21:24.263Z,100279.20
2019-04-11T16:23:56.969Z,100277.09
2019-04-11T16:26:43.865Z,100281.80
2019-04-11T16:29:18.203Z,100278.84
2019-04-11T16:31:48.125Z,100284.88
2019-04-11T16:34:31.669Z,100298.88
2019-04-11T16:37:01.601Z,100303.55
2019-04-11T16:39:54.854Z,100304.56
2019-04-11T16:42:24.818Z,100307.84
2019-04-11T16:45:12.418Z,100315.14
2019-04-11T16:47:43.956Z,100315.59
2019-04-11T16:50:14.109Z,100320.72
2019-04-11T16:52:44.072Z,100321.97
2019-04-11T16:55:14.218Z,100321.91
2019-04-11T16:57:45.493Z,100333.58
2019-04-11T17:00:20.259Z,100335.46
2019-04-11T17:02:47.387Z,100340.63
2019-04-11T17:05:17.501Z,100344.91
2019-04-11T17:08:01.063Z,100346.12
2019-04-11T17:10:49.541Z,100349.98
2019-04-11T17:13:19.548Z,100356.23
2019-04-11T17:15:49.591Z,100359.43
2019-04-11T17:18:19.637Z,100361.99
2019-04-11T17:20:49.790Z,100370.86
2019-04-11T17:23:19.896Z,100371.83
2019-04-11T17:25:53.097Z,100370.70
2019-04-11T17:28:23.121Z,100371.10
2019-04-11T17:30:55.701Z,100375.45
2019-04-11T17:33:27.754Z,100374.84
2019-04-11T17:35:56.831Z,100378.38
2019-04-11T17:38:26.988Z,100382.48
2019-04-11T17:40:56.974Z,100379.70
2019-04-11T17:43:27.255Z,100375.78
2019-04-11T17:45:57.734Z,100388.48
2019-04-11T17:48:27.076Z,100384.69
2019-04-11T17:50:57.184Z,100385.03
2019-04-11T17:53:27.206Z,100384.09
2019-04-11T17:55:57.371Z,100387.30
2019-04-11T17:58:27.907Z,100387.30
2019-04-11T18:01:00.539Z,100384.70
2019-04-11T18:03:30.926Z,100383.75
2019-04-11T18:06:01.242Z,100384.28
2019-04-11T18:08:32.226Z,100393.49
2019-04-11T18:11:03.697Z,100395.51
2019-04-11T18:13:39.566Z,100398.85
2019-04-11T18:16:09.903Z,100393.82
2019-04-11T18:18:40.146Z,100394.72
2019-04-11T18:21:10.291Z,100391.16
2019-04-11T18:23:42.498Z,100390.78
2019-04-11T18:26:12.446Z,100396.98
2019-04-11T18:28:43.968Z,100395.62
2019-04-11T18:31:13.915Z,100400.66
2019-04-11T18:33:43.945Z,100398.20
2019-04-11T18:36:13.926Z,100399.99
2019-04-11T18:38:44.586Z,100398.06
2019-04-11T18:41:14.990Z,100400.20
2019-04-11T18:43:47.106Z,100394.90
2019-04-11T18:46:17.194Z,100392.91
2019-04-11T18:48:47.445Z,100397.56
2019-04-11T18:51:17.505Z,100398.52
2019-04-11T18:53:47.512Z,100404.47
2019-04-11T18:56:17.553Z,100394.14
2019-04-11T18:58:47.689Z,100401.61
2019-04-11T19:01:19.686Z,100403.59
2019-04-11T19:03:49.724Z,100402.73
2019-04-11T19:06:27.764Z,100410.45
2019-04-11T19:08:51.544Z,100397.21
2019-04-11T19:11:21.655Z,100397.31
2019-04-11T19:13:51.709Z,100400.09
2019-04-11T19:16:21.742Z,100394.21
2019-04-11T19:18:51.773Z,100388.89
2019-04-11T19:21:22.234Z,100397.33
2019-04-11T19:23:52.252Z,100393.78
2019-04-11T19:26:22.925Z,100392.76
2019-04-11T19:28:55.206Z,100389.34
2019-04-11T19:31:28.443Z,100390.31
2019-04-11T19:34:04.314Z,100385.09
2019-04-11T19:36:32.354Z,100383.63
2019-04-11T19:39:02.300Z,100389.25
2019-04-11T19:41:34.067Z,100390.04
2019-04-11T19:44:04.824Z,100385.84
2019-04-11T19:46:35.481Z,100391.76
2019-04-11T19:49:04.834Z,100386.52
2019-04-11T19:51:34.728Z,100387.88
2019-04-11T19:54:04.773Z,100388.11
2019-04-11T19:56:42.370Z,100388.63
2019-04-11T19:59:12.408Z,100381.52
2019-04-11T20:01:42.443Z,100387.72
2019-04-11T20:04:12.479Z,100382.43
2019-04-11T20:06:43.197Z,100388.54
2019-04-11T20:09:13.379Z,100382.88
2019-04-11T20:11:44.870Z,100380.25
2019-04-11T20:14:15.088Z,100379.48
2019-04-11T20:16:48.883Z,100381.95
2019-04-11T20:19:18.038Z,100376.34
2019-04-11T20:21:48.018Z,100378.68
2019-04-11T20:24:18.313Z,100379.91
2019-04-11T20:26:50.293Z,100378.31
2019-04-11T20:29:21.435Z,100376.54
2019-04-11T20:31:51.585Z,100368.91
2019-04-11T20:34:27.633Z,100377.36
2019-04-11T20:36:54.832Z,100384.46
2019-04-11T20:39:24.875Z,100379.37
2019-04-11T20:41:56.333Z,100372.00
2019-04-11T20:44:28.096Z,100378.42
2019-04-11T20:47:00.488Z,100365.33
2019-04-11T20:49:30.020Z,100366.32
2019-04-11T20:52:00.001Z,100366.73
2019-04-11T20:54:30.511Z,100362.20
2019-04-11T20:57:00.439Z,100362.33
2019-04-11T20:59:34.884Z,100364.23
2019-04-11T21:02:02.063Z,100361.63
2019-04-11T21:04:32.043Z,100357.75
2019-04-11T21:07:02.659Z,100363.88
2019-04-11T21:09:33.219Z,100365.01
2019-04-11T21:12:04.971Z,100358.92
2019-04-11T21:14:35.008Z,100359.20
2019-04-11T21:17:05.038Z,100360.50
2019-04-11T21:19:35.071Z,100365.14
2019-04-11T21:22:05.003Z,100360.56
2019-04-11T21:24:35.043Z,100367.47
2019-04-11T21:27:05.294Z,100363.88
2019-04-11T21:29:35.325Z,100368.09
2019-04-11T21:32:05.975Z,100368.68
2019-04-11T21:34:35.218Z,100373.27
2019-04-11T21:37:05.330Z,100375.33
2019-04-11T21:39:35.270Z,100373.97
2019-04-11T21:42:06.127Z,100373.34
2019-04-11T21:44:36.911Z,100360.17
2019-04-11T21:47:07.358Z,100365.03
2019-04-11T21:49:37.969Z,100359.73
2019-04-11T21:52:12.048Z,100371.55
2019-04-11T21:54:39.786Z,100368.38
2019-04-11T21:57:09.833Z,100369.78
2019-04-11T21:59:40.063Z,100368.70
2019-04-11T22:02:12.403Z,100380.98
2019-04-11T22:04:43.493Z,100379.73
2019-04-11T22:07:14.582Z,100375.87
2019-04-11T22:09:44.607Z,100376.22
2019-04-11T22:12:14.649Z,100377.36
2019-04-11T22:14:44.687Z,100385.05
2019-04-11T22:17:15.836Z,100383.67
2019-04-11T22:19:46.562Z,100383.00
2019-04-11T22:22:16.634Z,100388.50
2019-04-11T22:24:46.596Z,100386.22
2019-04-11T22:27:16.609Z,100391.09
2019-04-11T22:29:46.526Z,100386.09
2019-04-11T22:32:16.685Z,100390.86
2019-04-11T22:34:47.330Z,100395.05
2019-04-11T22:37:16.572Z,100398.73
2019-04-11T22:39:46.492Z,100393.62
2019-04-11T22:42:16.654Z,100401.70
2019-04-11T22:44:48.190Z,100400.34
2019-04-11T22:47:18.089Z,100399.91
2019-04-11T22:49:48.062Z,100405.62
2019-04-11T22:52:19.225Z,100402.13
2019-04-11T22:54:49.257Z,100398.69
2019-04-11T22:57:19.312Z,100404.13
2019-04-11T22:59:49.330Z,100407.81
2019-04-11T23:02:26.846Z,100410.66
2019-04-11T23:04:56.768Z,100411.88
2019-04-11T23:07:26.697Z,100408.06
2019-04-11T23:09:56.743Z,100408.48
2019-04-11T23:12:26.776Z,100409.28
2019-04-11T23:14:57.743Z,100418.52
2019-04-11T23:17:27.669Z,100416.09
2019-04-11T23:19:57.602Z,100416.83
2019-04-11T23:22:27.645Z,100412.69
2019-04-11T23:24:57.468Z,100410.95
2019-04-11T23:27:27.427Z,100415.22
2019-04-11T23:29:57.361Z,100411.84
2019-04-11T23:32:27.375Z,100409.31
2019-04-11T23:34:57.313Z,100412.03
2019-04-11T23:37:27.258Z,100411.13
2019-04-11T23:39:57.236Z,100415.97
2019-04-11T23:42:28.342Z,100412.56
2019-04-11T23:44:58.385Z,100413.49
2019-04-11T23:47:28.321Z,100422.89
2019-04-11T23:49:58.355Z,100413.82
2019-04-11T23:52:28.409Z,100414.13
2019-04-11T23:55:00.570Z,100417.59
2019-04-11T23:57:31.278Z,100416.36
